Chefornak, Alaska
Current Conditions -  °F | °C
As of 7:13 AM on Thursday 30 Oct 2014 (Local Time) from PAKI Reporting Station
Broken Clouds Broken Clouds  
Wind Chill: 15°   Ceiling: 1500
Heat Index: 25°   Visibility: 10mi
Dew Point: 21°   Wind: 9mph
Humidity: 86%   Direction: 350°N
Pressure: 29.94"   Gusts: NA
Location:  60.16°N, 164.27°W
Report Text: PAKI 301513Z AUTO 35008KT 10SM BKN015 M04/M06 A2994 RMK AO2 TSNO $
Loading
Personal Weather Stations






























Interactive Weather Map
Tropical Storm Tracking
New forecast layout! Learn more

10-Day Weather Forecast

Advertisements
Track Severe Weather on mobile